createdAt,value
2023-02-01T00:01:08.779Z,14.00
2023-02-01T00:03:36.038Z,12.00
2023-02-01T00:06:03.308Z,12.30
2023-02-01T00:08:30.793Z,12.20
2023-02-01T00:11:04.465Z,12.97
2023-02-01T00:13:34.083Z,9.27
2023-02-01T00:16:27.239Z,10.20
2023-02-01T00:19:04.082Z,8.33
2023-02-01T00:21:31.604Z,11.33
2023-02-01T00:23:59.417Z,13.17
2023-02-01T00:26:39.148Z,13.20
2023-02-01T00:29:11.770Z,10.17
2023-02-01T00:31:38.843Z,14.43
2023-02-01T00:34:06.318Z,13.57
2023-02-01T00:36:33.755Z,12.87
2023-02-01T00:39:00.837Z,12.10
2023-02-01T00:41:28.088Z,16.83
2023-02-01T00:43:55.424Z,14.33
2023-02-01T00:46:22.929Z,15.63
2023-02-01T00:48:50.757Z,14.30
2023-02-01T00:51:22.161Z,16.77
2023-02-01T00:53:49.709Z,11.27
2023-02-01T00:56:17.419Z,13.20
2023-02-01T00:58:46.054Z,13.03
2023-02-01T01:01:21.524Z,16.87
2023-02-01T01:03:55.071Z,16.13
2023-02-01T01:06:28.579Z,14.37
2023-02-01T01:08:58.605Z,9.77
2023-02-01T01:11:29.827Z,8.07
2023-02-01T01:13:59.326Z,8.77
2023-02-01T01:16:29.044Z,11.60
2023-02-01T01:18:57.005Z,8.83
2023-02-01T01:21:24.680Z,10.27
2023-02-01T01:23:52.347Z,11.27
2023-02-01T01:26:25.894Z,12.53
2023-02-01T01:28:53.436Z,11.40
2023-02-01T01:31:21.851Z,10.43
2023-02-01T01:33:51.921Z,12.63
2023-02-01T01:36:19.955Z,12.30
2023-02-01T01:38:47.541Z,15.47
2023-02-01T01:41:19.369Z,13.80
2023-02-01T01:44:05.768Z,11.43
2023-02-01T01:46:39.016Z,13.97
2023-02-01T01:49:14.136Z,16.60
2023-02-01T01:51:52.714Z,11.23
2023-02-01T01:54:30.718Z,9.73
2023-02-01T01:57:05.965Z,13.57
2023-02-01T01:59:37.516Z,13.27
2023-02-01T02:02:04.996Z,10.87
2023-02-01T02:04:34.622Z,13.67
2023-02-01T02:07:22.723Z,15.37
2023-02-01T02:10:00.157Z,12.00
2023-02-01T02:12:28.949Z,13.97
2023-02-01T02:14:56.827Z,15.53
2023-02-01T02:17:47.391Z,14.20
2023-02-01T02:20:21.883Z,14.70
2023-02-01T02:23:27.678Z,15.43
2023-02-01T02:26:10.100Z,10.83
2023-02-01T02:29:20.414Z,10.97
2023-02-01T02:32:06.251Z,3.47
2023-02-01T02:34:47.546Z,8.77
2023-02-01T02:37:23.906Z,7.80
2023-02-01T02:40:27.668Z,9.27
2023-02-01T02:43:40.557Z,12.90
2023-02-01T02:46:59.152Z,9.97
2023-02-01T02:49:40.400Z,10.40
2023-02-01T02:52:44.088Z,6.70
2023-02-01T02:55:11.992Z,7.43
2023-02-01T02:58:01.398Z,7.63
2023-02-01T03:00:51.894Z,5.83
2023-02-01T03:03:37.889Z,4.13
2023-02-01T03:06:06.642Z,5.83
2023-02-01T03:08:34.587Z,4.33
2023-02-01T03:11:09.848Z,3.93
2023-02-01T03:13:57.134Z,7.67
2023-02-01T03:16:37.820Z,7.83
2023-02-01T03:19:21.697Z,7.77
2023-02-01T03:22:15.080Z,6.00
2023-02-01T03:24:55.342Z,9.17
2023-02-01T03:27:33.656Z,9.17
2023-02-01T03:30:21.879Z,13.60
2023-02-01T03:33:02.085Z,17.13
2023-02-01T03:35:51.284Z,11.93
2023-02-01T03:38:39.704Z,12.77
2023-02-01T03:41:24.907Z,12.87
2023-02-01T03:44:46.511Z,13.07
2023-02-01T03:47:27.178Z,10.93
2023-02-01T03:50:00.731Z,17.77
2023-02-01T03:52:36.543Z,16.93
2023-02-01T03:55:06.891Z,17.23
2023-02-01T03:57:39.362Z,17.63
2023-02-01T04:00:09.117Z,15.13
2023-02-01T04:02:41.550Z,18.20
2023-02-01T04:05:09.980Z,19.23
2023-02-01T04:07:39.609Z,18.50
2023-02-01T04:10:07.715Z,18.90
2023-02-01T04:12:34.912Z,15.03
2023-02-01T04:15:02.168Z,22.13
2023-02-01T04:17:29.392Z,15.60
2023-02-01T04:19:56.625Z,18.67
2023-02-01T04:22:23.851Z,19.90
2023-02-01T04:24:50.970Z,20.37
2023-02-01T04:27:18.222Z,18.87
2023-02-01T04:29:46.172Z,20.20
2023-02-01T04:32:13.347Z,18.20
2023-02-01T04:34:40.528Z,18.77
2023-02-01T04:37:08.228Z,17.13
2023-02-01T04:39:35.432Z,20.67
2023-02-01T04:42:02.574Z,17.80
2023-02-01T04:44:29.672Z,15.20
2023-02-01T04:46:56.849Z,21.93
2023-02-01T04:49:26.373Z,15.83
2023-02-01T04:51:53.684Z,18.30
2023-02-01T04:54:20.765Z,27.20
2023-02-01T04:56:47.917Z,20.60
2023-02-01T04:59:15.166Z,19.73
2023-02-01T05:01:42.417Z,18.57
2023-02-01T05:04:09.620Z,21.23
2023-02-01T05:06:36.857Z,20.77
2023-02-01T05:09:04.148Z,18.93
2023-02-01T05:11:49.857Z,20.37
2023-02-01T05:14:17.127Z,20.10
2023-02-01T05:16:44.242Z,20.53
2023-02-01T05:19:11.371Z,22.73
2023-02-01T05:21:38.573Z,19.97
2023-02-01T05:24:14.059Z,16.87
2023-02-01T05:26:41.996Z,20.67
2023-02-01T05:29:10.675Z,17.53
2023-02-01T05:31:38.816Z,20.20
2023-02-01T05:34:08.794Z,19.57
2023-02-01T05:36:36.004Z,16.60
2023-02-01T05:39:03.317Z,23.07
2023-02-01T05:41:30.658Z,21.97
2023-02-01T05:43:57.801Z,21.63
2023-02-01T05:46:25.034Z,18.10
2023-02-01T05:48:52.266Z,24.83
2023-02-01T05:51:19.608Z,20.57
2023-02-01T05:53:46.780Z,22.33
2023-02-01T05:56:13.941Z,22.30
2023-02-01T05:58:41.108Z,19.70
2023-02-01T06:01:08.629Z,16.77
2023-02-01T06:03:36.461Z,14.10
2023-02-01T06:06:03.908Z,15.53
2023-02-01T06:08:31.048Z,12.30
2023-02-01T06:11:03.579Z,10.10
2023-02-01T06:13:33.339Z,10.93
2023-02-01T06:16:08.005Z,14.87
2023-02-01T06:18:36.619Z,13.53
2023-02-01T06:21:04.254Z,9.13
2023-02-01T06:23:31.921Z,10.80
2023-02-01T06:26:01.741Z,9.97
2023-02-01T06:28:30.135Z,10.63
2023-02-01T06:30:59.125Z,9.53
2023-02-01T06:33:26.928Z,12.00
2023-02-01T06:36:03.180Z,10.13
2023-02-01T06:38:31.457Z,11.30
2023-02-01T06:40:59.222Z,7.03
2023-02-01T06:43:28.324Z,9.77
2023-02-01T06:46:02.279Z,9.87
2023-02-01T06:48:29.797Z,5.40
2023-02-01T06:50:57.149Z,6.43
2023-02-01T06:53:24.543Z,5.70
2023-02-01T06:56:00.931Z,8.00
2023-02-01T06:58:33.756Z,4.73
2023-02-01T07:01:09.409Z,4.70
2023-02-01T07:03:37.296Z,11.60
2023-02-01T07:06:05.506Z,2.87
2023-02-01T07:08:35.404Z,7.27
2023-02-01T07:11:25.040Z,5.73
2023-02-01T07:13:52.120Z,5.33
2023-02-01T07:16:21.185Z,6.27
2023-02-01T07:18:48.901Z,5.63
2023-02-01T07:21:16.148Z,5.27
2023-02-01T07:23:43.316Z,4.97
2023-02-01T07:26:14.126Z,7.20
2023-02-01T07:28:42.169Z,5.00
2023-02-01T07:31:22.818Z,6.63
2023-02-01T07:33:53.642Z,8.50
2023-02-01T07:36:21.023Z,7.20
2023-02-01T07:38:48.676Z,8.37
2023-02-01T07:41:16.600Z,7.07
2023-02-01T07:43:44.456Z,8.63
2023-02-01T07:46:12.620Z,7.10
2023-02-01T07:48:40.244Z,4.30
2023-02-01T07:51:14.241Z,5.80
2023-02-01T07:53:42.107Z,7.87
2023-02-01T07:56:27.703Z,7.13
2023-02-01T07:58:57.158Z,5.97
2023-02-01T08:01:27.853Z,7.17
2023-02-01T08:04:01.937Z,11.07
2023-02-01T08:06:32.411Z,11.33
2023-02-01T08:09:00.515Z,7.93
2023-02-01T08:11:28.490Z,5.07
2023-02-01T08:13:56.100Z,7.87
2023-02-01T08:16:24.733Z,7.30
2023-02-01T08:18:53.554Z,7.57
2023-02-01T08:21:25.343Z,9.47
2023-02-01T08:23:53.248Z,9.00
2023-02-01T08:26:26.908Z,7.33
2023-02-01T08:28:58.247Z,8.07
2023-02-01T08:31:28.743Z,8.73
2023-02-01T08:34:00.275Z,8.43
2023-02-01T08:36:30.343Z,10.33
2023-02-01T08:38:58.311Z,9.07
2023-02-01T08:41:30.341Z,10.13
2023-02-01T08:43:58.946Z,8.07
2023-02-01T08:46:26.622Z,9.47
2023-02-01T08:48:54.236Z,9.83
2023-02-01T08:51:24.165Z,15.83
2023-02-01T08:53:52.448Z,11.33
2023-02-01T08:56:20.753Z,15.07
2023-02-01T08:58:48.283Z,9.70
2023-02-01T09:01:18.126Z,8.10
2023-02-01T09:03:46.655Z,10.73
2023-02-01T09:06:16.187Z,10.07
2023-02-01T09:08:44.229Z,9.37
2023-02-01T09:11:18.631Z,11.00
2023-02-01T09:13:46.480Z,10.07
2023-02-01T09:16:14.211Z,14.10
2023-02-01T09:18:50.658Z,18.17
2023-02-01T09:21:23.796Z,16.73
2023-02-01T09:23:53.063Z,14.93
2023-02-01T09:26:26.448Z,15.90
2023-02-01T09:28:58.692Z,13.87
2023-02-01T09:31:26.287Z,9.67
2023-02-01T09:33:53.742Z,14.90
2023-02-01T09:36:21.014Z,16.33
2023-02-01T09:38:52.865Z,13.40
2023-02-01T09:41:27.324Z,16.80
2023-02-01T09:44:43.983Z,17.00
2023-02-01T09:47:19.512Z,15.00
2023-02-01T09:50:03.836Z,14.37
2023-02-01T09:53:44.915Z,4.87
2023-02-01T09:56:36.653Z,4.60
2023-02-01T09:59:20.208Z,2.67
2023-02-01T10:01:47.851Z,2.30
2023-02-01T10:04:18.132Z,3.90
2023-02-01T10:07:19.010Z,3.17
2023-02-01T10:10:06.146Z,7.97
2023-02-01T10:12:44.344Z,5.40
2023-02-01T10:15:39.143Z,7.63
2023-02-01T10:18:44.135Z,5.80
2023-02-01T10:21:24.220Z,9.47
2023-02-01T10:24:00.974Z,8.50
2023-02-01T10:26:39.438Z,11.30
2023-02-01T10:29:26.249Z,10.33
2023-02-01T10:31:54.042Z,9.43
2023-02-01T10:34:29.216Z,14.67
2023-02-01T10:37:27.931Z,12.67
2023-02-01T10:39:58.827Z,11.17
2023-02-01T10:42:29.989Z,13.47
2023-02-01T10:45:01.001Z,18.97
2023-02-01T10:47:28.583Z,15.27
2023-02-01T10:50:48.435Z,16.63
2023-02-01T10:53:53.687Z,16.07
2023-02-01T10:56:27.692Z,13.17
2023-02-01T10:59:04.565Z,15.73
2023-02-01T11:01:39.072Z,11.17
2023-02-01T11:04:14.440Z,14.10
2023-02-01T11:07:13.074Z,15.33
2023-02-01T11:09:42.133Z,9.37
2023-02-01T11:12:38.616Z,10.40
2023-02-01T11:15:23.685Z,13.10
2023-02-01T11:17:53.807Z,13.77
2023-02-01T11:20:42.355Z,10.50
2023-02-01T11:23:19.790Z,12.20
2023-02-01T11:26:24.773Z,15.37
2023-02-01T11:29:04.950Z,22.73
2023-02-01T11:31:34.669Z,11.70
2023-02-01T11:34:15.211Z,13.97
2023-02-01T11:36:43.168Z,12.77
2023-02-01T11:39:23.853Z,12.97
2023-02-01T11:42:14.157Z,13.90
2023-02-01T11:44:47.235Z,10.90
2023-02-01T11:47:25.394Z,17.47
2023-02-01T11:50:01.941Z,11.53
2023-02-01T11:53:05.370Z,15.07
2023-02-01T11:56:05.710Z,14.60
2023-02-01T11:59:00.729Z,13.50
2023-02-01T12:01:51.632Z,11.43
2023-02-01T12:05:00.221Z,9.30
2023-02-01T12:07:56.176Z,10.60
2023-02-01T12:10:53.350Z,11.73
2023-02-01T12:13:45.068Z,10.17
2023-02-01T12:16:38.153Z,9.17
2023-02-01T12:19:36.480Z,8.67
2023-02-01T12:22:19.882Z,7.43
2023-02-01T12:25:04.372Z,11.97
2023-02-01T12:27:47.671Z,8.10
2023-02-01T12:30:47.080Z,11.83
2023-02-01T12:33:38.463Z,6.03
2023-02-01T12:36:28.321Z,9.27
2023-02-01T12:39:14.150Z,10.97
2023-02-01T12:41:59.653Z,13.20
2023-02-01T12:44:33.214Z,11.70
2023-02-01T12:47:25.769Z,10.50
2023-02-01T12:50:26.602Z,10.10
2023-02-01T12:53:33.587Z,17.73
2023-02-01T12:56:12.459Z,10.50
2023-02-01T12:58:49.922Z,19.67
2023-02-01T13:01:53.425Z,12.13
2023-02-01T13:04:39.886Z,12.57
2023-02-01T13:07:27.250Z,11.87
2023-02-01T13:10:07.136Z,8.33
2023-02-01T13:12:53.174Z,8.30
2023-02-01T13:15:32.761Z,14.23
2023-02-01T13:18:06.861Z,11.00
2023-02-01T13:20:55.852Z,11.23
2023-02-01T13:23:32.079Z,10.37
2023-02-01T13:26:00.142Z,12.10
2023-02-01T13:28:29.721Z,13.90
2023-02-01T13:31:40.479Z,11.83
2023-02-01T13:34:55.275Z,1.80
2023-02-01T13:37:52.037Z,1.73
2023-02-01T13:40:39.048Z,1.43
2023-02-01T13:43:27.472Z,1.73
2023-02-01T13:46:02.981Z,1.87
2023-02-01T13:48:41.830Z,1.43
2023-02-01T13:51:09.458Z,1.77
2023-02-01T13:53:40.565Z,1.30
2023-02-01T13:56:19.729Z,1.77
2023-02-01T13:58:49.709Z,2.77
2023-02-01T14:01:23.024Z,4.37
2023-02-01T14:03:53.968Z,3.03
2023-02-01T14:06:27.644Z,5.17
2023-02-01T14:09:15.559Z,5.63
2023-02-01T14:11:46.308Z,2.43
2023-02-01T14:14:16.524Z,6.83
2023-02-01T14:16:53.385Z,5.70
2023-02-01T14:19:28.137Z,5.87
2023-02-01T14:22:27.026Z,5.90
2023-02-01T14:24:58.858Z,7.50
2023-02-01T14:27:31.032Z,6.03
2023-02-01T14:30:03.052Z,7.50
2023-02-01T14:32:39.489Z,7.37
2023-02-01T14:35:37.304Z,7.37
2023-02-01T14:38:05.158Z,7.60
2023-02-01T14:40:33.007Z,5.40
2023-02-01T14:43:00.242Z,9.37
2023-02-01T14:45:28.451Z,5.77
2023-02-01T14:48:16.580Z,5.93
2023-02-01T14:50:48.243Z,8.60
2023-02-01T14:53:33.860Z,4.23
2023-02-01T14:56:05.446Z,3.50
2023-02-01T14:58:50.142Z,5.93
2023-02-01T15:01:28.049Z,5.67
2023-02-01T15:04:22.843Z,6.77
2023-02-01T15:06:58.466Z,8.90
2023-02-01T15:09:53.382Z,8.60
2023-02-01T15:12:28.574Z,6.90
2023-02-01T15:15:13.965Z,6.13
2023-02-01T15:17:42.213Z,7.97
2023-02-01T15:20:20.964Z,11.30
2023-02-01T15:23:01.732Z,9.07
2023-02-01T15:25:37.011Z,8.60
2023-02-01T15:28:04.348Z,8.10
2023-02-01T15:30:35.419Z,7.90
2023-02-01T15:33:18.634Z,13.20
2023-02-01T15:35:49.751Z,11.40
2023-02-01T15:38:25.865Z,11.40
2023-02-01T15:41:10.301Z,8.83
2023-02-01T15:43:44.359Z,8.43
2023-02-01T15:46:20.820Z,8.90
2023-02-01T15:48:53.015Z,7.43
2023-02-01T15:51:26.418Z,7.77
2023-02-01T15:53:58.552Z,10.53
2023-02-01T15:56:40.549Z,9.20
2023-02-01T15:59:19.101Z,4.67
2023-02-01T16:01:46.724Z,6.10
2023-02-01T16:04:25.154Z,5.40
2023-02-01T16:07:04.462Z,7.23
2023-02-01T16:09:55.404Z,6.40
2023-02-01T16:12:39.159Z,5.87
2023-02-01T16:15:07.132Z,6.37
2023-02-01T16:17:34.318Z,10.27
2023-02-01T16:20:01.783Z,5.00
2023-02-01T16:22:28.898Z,6.97
2023-02-01T16:24:56.416Z,7.77
2023-02-01T16:27:23.760Z,10.23
2023-02-01T16:29:51.336Z,8.17
2023-02-01T16:32:21.639Z,7.47
2023-02-01T16:34:50.028Z,10.93
2023-02-01T16:37:23.251Z,7.23
2023-02-01T16:39:50.751Z,7.47
2023-02-01T16:42:18.573Z,6.90
2023-02-01T16:44:45.721Z,8.13
2023-02-01T16:47:18.784Z,8.63
2023-02-01T16:49:46.680Z,11.70
2023-02-01T16:52:24.468Z,8.03
2023-02-01T16:54:52.187Z,10.43
2023-02-01T16:57:23.440Z,11.30
2023-02-01T16:59:50.879Z,10.37
2023-02-01T17:02:20.930Z,9.93
2023-02-01T17:04:49.618Z,10.87
2023-02-01T17:07:19.616Z,12.53
2023-02-01T17:09:47.761Z,13.07
2023-02-01T17:12:25.850Z,18.00
2023-02-01T17:14:53.541Z,10.67
2023-02-01T17:17:32.765Z,12.37
2023-02-01T17:20:06.909Z,17.70
2023-02-01T17:22:35.003Z,18.47
2023-02-01T17:25:02.253Z,13.73
2023-02-01T17:27:30.263Z,17.37
2023-02-01T17:29:57.566Z,17.00
2023-02-01T17:32:26.556Z,13.93
2023-02-01T17:34:53.828Z,14.80
2023-02-01T17:37:31.916Z,15.57
2023-02-01T17:39:59.555Z,17.27
2023-02-01T17:42:29.399Z,16.53
2023-02-01T17:45:01.300Z,17.20
2023-02-01T17:47:28.548Z,13.83
2023-02-01T17:49:58.196Z,18.07
2023-02-01T17:52:26.307Z,18.80
2023-02-01T17:54:54.211Z,15.03
2023-02-01T17:57:21.946Z,20.33
2023-02-01T17:59:49.208Z,19.57
2023-02-01T18:02:22.543Z,18.23
2023-02-01T18:04:51.237Z,19.07
2023-02-01T18:07:18.860Z,20.50
2023-02-01T18:09:46.073Z,14.87
2023-02-01T18:12:23.084Z,17.57
2023-02-01T18:14:50.199Z,19.40
2023-02-01T18:17:17.382Z,20.47
2023-02-01T18:19:44.718Z,19.97
2023-02-01T18:22:22.443Z,13.47
2023-02-01T18:24:49.581Z,16.47
2023-02-01T18:27:16.739Z,12.27
2023-02-01T18:29:44.142Z,16.37
2023-02-01T18:32:11.260Z,17.57
2023-02-01T18:34:38.394Z,16.67
2023-02-01T18:37:05.687Z,14.67
2023-02-01T18:39:32.894Z,19.63
2023-02-01T18:42:00.110Z,17.10
2023-02-01T18:44:27.259Z,19.53
2023-02-01T18:46:57.639Z,15.67
2023-02-01T18:49:24.779Z,19.23
2023-02-01T18:51:53.050Z,16.40
2023-02-01T18:54:20.291Z,21.30
2023-02-01T18:56:47.514Z,23.33
2023-02-01T18:59:14.676Z,19.87
2023-02-01T19:01:41.818Z,21.33
2023-02-01T19:04:21.672Z,25.70
2023-02-01T19:06:51.247Z,19.67
2023-02-01T19:09:18.380Z,20.00
2023-02-01T19:11:45.579Z,13.27
2023-02-01T19:14:12.695Z,18.40
2023-02-01T19:16:39.999Z,24.47
2023-02-01T19:19:07.453Z,19.33
2023-02-01T19:21:34.691Z,19.50
2023-02-01T19:24:01.825Z,17.30
2023-02-01T19:26:29.263Z,25.37
2023-02-01T19:28:58.813Z,26.37
2023-02-01T19:31:26.145Z,17.87
2023-02-01T19:33:54.880Z,24.63
2023-02-01T19:36:22.075Z,18.33
2023-02-01T19:38:49.303Z,19.90
2023-02-01T19:41:18.779Z,18.20
2023-02-01T19:43:46.520Z,18.97
2023-02-01T19:46:21.685Z,16.50
2023-02-01T19:48:48.864Z,21.07
2023-02-01T19:51:16.025Z,21.37
2023-02-01T19:53:43.227Z,24.37
2023-02-01T19:56:13.388Z,22.93
2023-02-01T19:58:40.474Z,18.53
2023-02-01T20:01:10.269Z,19.87
2023-02-01T20:03:37.370Z,18.80
2023-02-01T20:06:07.289Z,17.60
2023-02-01T20:08:34.542Z,21.90
2023-02-01T20:11:01.754Z,20.53
2023-02-01T20:13:29.064Z,19.93
2023-02-01T20:15:59.560Z,15.83
2023-02-01T20:18:29.855Z,20.00
2023-02-01T20:20:58.535Z,19.67
2023-02-01T20:23:27.633Z,17.03
2023-02-01T20:25:57.273Z,18.37
2023-02-01T20:28:28.495Z,16.00
2023-02-01T20:30:56.677Z,17.13
2023-02-01T20:33:25.560Z,15.77
2023-02-01T20:35:52.635Z,14.33
2023-02-01T20:38:19.975Z,11.90
2023-02-01T20:40:50.153Z,12.90
2023-02-01T20:43:17.446Z,12.03
2023-02-01T20:45:45.356Z,14.63
2023-02-01T20:48:12.660Z,14.93
2023-02-01T20:50:39.780Z,15.07
2023-02-01T20:53:06.947Z,14.73
2023-02-01T20:55:34.421Z,6.57
2023-02-01T20:58:01.616Z,11.57
2023-02-01T21:00:29.364Z,10.07
2023-02-01T21:02:56.808Z,7.50
2023-02-01T21:05:25.677Z,9.43
2023-02-01T21:07:53.154Z,9.93
2023-02-01T21:10:20.205Z,11.20
2023-02-01T21:12:49.008Z,9.97
2023-02-01T21:15:17.308Z,11.70
2023-02-01T21:17:44.661Z,9.33
2023-02-01T21:20:13.006Z,14.40
2023-02-01T21:22:40.156Z,11.83
2023-02-01T21:25:08.007Z,12.20
2023-02-01T21:27:35.481Z,8.27
2023-02-01T21:30:05.882Z,11.20
2023-02-01T21:32:35.427Z,15.97
2023-02-01T21:35:03.812Z,12.53
2023-02-01T21:37:31.123Z,14.40
2023-02-01T21:39:58.535Z,14.23
2023-02-01T21:42:26.584Z,11.87
2023-02-01T21:44:55.153Z,11.13
2023-02-01T21:47:25.551Z,13.57
2023-02-01T21:49:54.172Z,14.93
2023-02-01T21:52:22.030Z,10.57
2023-02-01T21:54:49.374Z,10.60
2023-02-01T21:57:16.456Z,16.47
2023-02-01T21:59:44.300Z,12.63
2023-02-01T22:02:17.415Z,15.83
2023-02-01T22:04:44.989Z,15.47
2023-02-01T22:07:12.376Z,16.60
2023-02-01T22:09:39.817Z,16.33
2023-02-01T22:12:08.518Z,18.63
2023-02-01T22:14:35.614Z,14.50
2023-02-01T22:17:02.755Z,16.40
2023-02-01T22:19:29.935Z,11.60
2023-02-01T22:21:57.064Z,13.67
2023-02-01T22:24:24.199Z,12.53
2023-02-01T22:26:51.358Z,11.00
2023-02-01T22:29:19.375Z,15.93
2023-02-01T22:31:47.008Z,12.20
2023-02-01T22:34:15.523Z,13.33
2023-02-01T22:36:43.405Z,15.57
2023-02-01T22:39:11.046Z,15.63
2023-02-01T22:41:38.350Z,19.33
2023-02-01T22:44:05.863Z,16.33
2023-02-01T22:46:33.261Z,14.97
2023-02-01T22:49:01.252Z,12.27
2023-02-01T22:51:31.127Z,10.23
2023-02-01T22:53:59.364Z,8.80
2023-02-01T22:56:35.621Z,13.83
2023-02-01T22:59:07.265Z,8.77
2023-02-01T23:01:35.462Z,11.10
2023-02-01T23:04:06.172Z,12.80
2023-02-01T23:06:34.055Z,12.77
2023-02-01T23:09:11.348Z,27.73
2023-02-01T23:11:38.988Z,14.23
2023-02-01T23:14:06.801Z,11.60
2023-02-01T23:16:34.032Z,14.60
2023-02-01T23:19:01.432Z,14.30
2023-02-01T23:21:28.789Z,16.40
2023-02-01T23:24:01.042Z,13.53
2023-02-01T23:26:31.001Z,9.07
2023-02-01T23:28:59.378Z,11.53
2023-02-01T23:31:30.859Z,10.53
2023-02-01T23:34:00.238Z,15.93
2023-02-01T23:36:29.049Z,11.93
2023-02-01T23:38:56.415Z,15.37
2023-02-01T23:41:24.852Z,16.17
2023-02-01T23:43:57.753Z,16.67
2023-02-01T23:46:35.214Z,17.57
2023-02-01T23:49:04.446Z,13.17
2023-02-01T23:51:32.136Z,12.43
2023-02-01T23:53:59.655Z,15.13
2023-02-01T23:56:33.605Z,16.33
2023-02-01T23:59:03.280Z,18.40
